Terminal Aerodrome Forecast
Issued by NWS Topeka, KS

Home | Current Version | Previous Version | Graphics & Text | Print | Product List | Glossary On
Versions: 1 2 3 4 5 6 7 8 9 10 11 12 13 14 15 16 17 18 19
000
FTUS43 KTOP 241100
TAFTOP
TAF
KTOP 241128Z 2412/2512 28006KT P6SM SKC
     FM241600 25010KT P6SM FEW200
     FM242000 24012G21KT P6SM BKN120
     FM250500 28014G24KT P6SM BKN050=

USA.gov is the U.S. government's official web portal to all federal, state and local government web resources and services.